Aérodrome :
LOGIN :

S'inscrire | Disclaimer

   EN    FR    IT 

 










Légende :    VFR   VFR Marginal   IFR   IFR Intensif   IFR Très Intensif
Visi : 
Plafond : 
>= 8 km
>= 3000ft
5 à 8 km
1000 à 3000 ft
1500m à 5 km
500 à 1000 ft
800 à 1500m
200 à 500 ft
< 800m
< 200 ft
Symboles :   Orages  Brouillard  Fortes neiges  Fortes précipitations  Vent > 20 kt
SIGMETs :   Divers  Orages  Givrage  Turbulence  Onde Orograph.  Cendres Volcan.






- Altitude de l'aérodrome : 70 ft
- Code IATA : LEI


LEAM - Almeria

DERNIER METAR :
  • 150500Z 34008KT 9999 SCT015 11/06 Q1016

METARs EXPIRÉS :
  • 150430Z 33008KT CAVOK 11/06 Q1016
  • 150400Z 34008KT CAVOK 11/08 Q1017 NOSIG
  • 150300Z AUTO 33008KT 9999 NCD 11/06 Q1016
  • 150230Z AUTO 33006KT 9999 NCD 11/07 Q1017

TAF TAF LEAM
Valide du 15 à 03h jusqu'au 16 à 03h UTC


150200Z 1503/1603 01004KT CAVOK TX18/1512Z TN09/1506Z
PROB30
TEMPO 1512/1517 18010KT



MET'MAP, la Météo Aéronautique d'un coup d'oeil ! - Copyright ORBIFLY Décembre 2007 - Disclaimer

ORBIFLY MET'MAP TEAM :

Programmation & Développement : Alexandra Zaïnal
Sur une idée originale de : Baudouin d'Aumeries
Assistance à la programmation : Marc-Olivier Méhu
Soutien technique & logistique : Manuel Goepfert

Contact : metmap@orbifly.com




SOURCES & CREDITS :

   NOAA